Relevés horaires Bierset (Belgique)


Relevés horaires à Bierset - Dimanche 24 Juin 2018
Heure UTC1 Température [°C] Vent [km/h] Hum. [%] Pres.4 [hPa] Visi. [Km] Nébu. [octa] Préc.5 [mm] Cond.
2m. Res. Ros. Dir.2 Vit. Moy. Raf.3
23:00 14.3 14.3 9.7 N 5.6 5.6 11.1 74 1023.7(0.4/3h) 30 7/8 -- --
22:00 14.9 14.9 11.0 N 5.6 5.6 7.4 77 1023.7(0.7/3h) 30 7/8 -- --
21:00 15.1 15.1 11.1 N 3.7 9.3 11.1 77 1023.6(0.4/3h) 30 7/8 -- --
20:00 15.7 15.7 10.5 N 5.6 7.4 11.1 71 1023.2(-0.1/3h) 30 7/8 -- --
19:00 16.5 16.5 10.2 N 5.6 9.3 11.1 66 1022.9(-0.3/3h) 30 7/8 -- --
18:00 16.9 16.9 9.8 N 9.3 9.3 13.0 63 1023.1(-0.3/3h) 30 7/8 0/12h
--
17:00 18.0 18.0 8.9 N 7.4 9.3 13.0 55 1022.9(-0.4/3h) 30 7/8 -- --
16:00 18.8 18.8 8.4 NNO 7.4 7.4 13.0 51 1023(-0.6/3h) 30 7/8 -- --
15:00 18.5 18.5 8.6 N 5.6 7.4 13.0 52 1023.2(-0.7/3h) 25 6/8 -- --
14:00 17.9 17.9 8.3 N 5.6 5.6 13.0 53 1023.4(-0.7/3h) 25 6/8 -- --
13:00 17.4 17.4 9.3 NO 5.6 5.6 11.1 59 1023.7(-0.5/3h) 25 6/8 -- --
12:00 17.2 17.2 9.4 N 3.7 5.6 9.3 60 1024.1(0.0/3h) 17 7/8 0/6h
--
11:00 15.7 15.7 9.7 N 3.7 5.6 9.3 67 1024.3(-0.2/3h) 17 8/8 -- --
10:00 14.7 14.7 9.3 N 5.6 5.6 9.3 70 1024.4(0.3/3h) 17 8/8 -- --
09:00 14.2 14.2 9.0 N 5.6 5.6 9.3 71 1024.3(0.4/3h) 17 8/8 -- --
08:00 13.2 13.2 9.2 NNO 3.7 5.6 7.4 77 1024.3(0.6/3h) 17 8/8 -- --
07:00 12.4 12.3 9.9 N 5.6 5.6 7.4 85 1024.3(0.7/3h) 9 7/8 -- --
06:00 11.5 11.5 10.6 NO 3.7 5.6 7.4 94 1024.1(0.7/3h) 6 8/8 0/12h
--
05:00 10.6 10.6 9.5 ONO 3.7 3.7 5.6 93 1023.8(0.0/3h) 9 8/8 -- --
04:00 10.2 10.2 8.7 ONO 3.7 3.7 5.6 90 1023.8(-0.6/3h) 20 6/8 -- --
03:00 10.6 10.6 8.9 O 3.7 3.7 5.6 89 1023.5(-1.3/3h) 20 6/8 -- --
02:00 12.3 12.3 9.2 ONO 1.9 3.7 5.6 81 1023.7(-1.3/3h) 20 7/8 -- --
01:00 13.2 13.2 9.1 ONO 3.7 3.7 5.6 76 1024.2(-0.8/3h) 20 7/8 -- --
00:00 13.9 13.9 9.8 NNO 1.9 5.6 7.4 76 1024.6(-0.5/3h) 20 7/8 0/6h
0/24h
--

1 Coordinated Universal Time. Actuellement il est 22:00 locale et 20:00 UTC.

2 Le vent souffle depuis la direction indiquée vers la direction oposée.

3 Les rafales max. sont disponible 40 min après l'heure du relevé.

4 Pour les stations d'altitude (plus de 600m) le géopotentiel du niveau le plus proche de la pression obligatoire est indiqué.

5 Les stations disposant d'un diffuseur peuvent indiquer "trace". Cela signifie que des précipitations ont touchés le sol mais que la quantité est inférieure à 0.1 mm.

Récapitulatif de la journée
Température [°C] Vent [km/h] Ensoleillement4 [h] Precipitations totale5 [mm] Pression [Hpa]
Min1 Max.2 Moy.3 Max. Min Max.
9.7 19.1 6 13.0 0 h 0 min 0 1022.9 1024.6

1 Température minimale relevée entre 18:00 UTC la veille et 18:00 UTC le jour donné.

2 Température maximale relevée entre 06:00 UTC le jour donné et 06:00 UTC le lendemain.

3 Vent moyen de la journée basé sur les relevés horaires.

4 Ensoleillement en heures relevé entre 06:00 UTC la veille et 06:00 UTC le jour donné.

5 Précipitations totales tombées entre 06:00 UTC la jour donné et 06:00 UTC le lendemain.

Graphiques horaires